createdAt,value
2022-08-24T00:08:37.793Z,84.53
2022-08-24T00:11:40.714Z,84.55
2022-08-24T00:14:44.669Z,84.60
2022-08-24T00:17:47.670Z,84.65
2022-08-24T00:20:51.889Z,84.67
2022-08-24T00:23:54.872Z,84.71
2022-08-24T00:26:57.994Z,84.71
2022-08-24T00:30:01.355Z,84.77
2022-08-24T00:33:05.122Z,84.80
2022-08-24T00:36:08.520Z,84.85
2022-08-24T00:39:12.678Z,84.94
2022-08-24T00:42:15.561Z,84.99
2022-08-24T00:45:20.699Z,85.04
2022-08-24T00:48:31.835Z,85.07
2022-08-24T00:51:49.787Z,85.04
2022-08-24T00:54:57.141Z,85.06
2022-08-24T00:58:04.804Z,85.10
2022-08-24T01:01:11.452Z,85.15
2022-08-24T01:04:20.918Z,85.17
2022-08-24T01:07:26.767Z,85.23
2022-08-24T01:10:33.863Z,85.20
2022-08-24T01:13:36.818Z,85.23
2022-08-24T01:16:58.789Z,85.24
2022-08-24T01:20:06.253Z,85.30
2022-08-24T01:23:36.702Z,85.31
2022-08-24T01:26:46.313Z,85.34
2022-08-24T01:29:50.337Z,85.28
2022-08-24T01:33:01.877Z,85.32
2022-08-24T01:36:18.390Z,85.36
2022-08-24T01:39:27.032Z,85.43
2022-08-24T01:42:30.116Z,85.46
2022-08-24T01:45:33.979Z,85.52
2022-08-24T01:48:37.123Z,85.57
2022-08-24T01:51:40.099Z,85.63
2022-08-24T01:54:43.755Z,85.70
2022-08-24T01:57:46.806Z,85.71
2022-08-24T02:00:49.653Z,85.74
2022-08-24T02:03:52.884Z,85.82
2022-08-24T02:06:56.044Z,85.81
2022-08-24T02:09:59.385Z,85.79
2022-08-24T02:13:03.286Z,85.78
2022-08-24T02:16:07.432Z,85.79
2022-08-24T02:19:10.675Z,85.76
2022-08-24T02:22:13.696Z,85.75
2022-08-24T02:25:17.558Z,85.74
2022-08-24T02:28:21.006Z,85.75
2022-08-24T02:31:24.051Z,85.72
2022-08-24T02:34:27.178Z,85.75
2022-08-24T02:37:30.132Z,85.73
2022-08-24T02:40:33.046Z,85.81
2022-08-24T02:43:36.108Z,85.83
2022-08-24T02:46:41.928Z,85.82
2022-08-24T02:49:45.096Z,85.80
2022-08-24T02:52:48.726Z,85.77
2022-08-24T02:55:51.727Z,85.74
2022-08-24T02:58:54.808Z,85.74
2022-08-24T03:01:58.367Z,85.80
2022-08-24T03:05:01.679Z,85.80
2022-08-24T03:08:05.402Z,85.84
2022-08-24T03:11:08.879Z,85.87
2022-08-24T03:14:11.981Z,85.93
2022-08-24T03:17:15.012Z,85.91
2022-08-24T03:20:21.591Z,85.95
2022-08-24T03:23:25.477Z,85.97
2022-08-24T03:26:28.403Z,85.99
2022-08-24T03:29:33.761Z,85.97
2022-08-24T03:32:37.825Z,85.97
2022-08-24T03:35:41.188Z,85.99
2022-08-24T03:38:44.339Z,86.02
2022-08-24T03:41:47.600Z,86.04
2022-08-24T03:44:50.516Z,86.07
2022-08-24T03:47:53.879Z,86.05
2022-08-24T03:50:57.290Z,86.00
2022-08-24T03:54:01.355Z,85.98
2022-08-24T03:57:04.690Z,86.04
2022-08-24T04:00:12.032Z,85.99
2022-08-24T04:03:17.569Z,85.93
2022-08-24T04:06:21.564Z,85.91
2022-08-24T04:09:24.883Z,85.94
2022-08-24T04:12:28.102Z,85.97
2022-08-24T04:15:32.257Z,86.02
2022-08-24T04:18:36.193Z,86.04
2022-08-24T04:21:39.224Z,86.07
2022-08-24T04:24:42.377Z,86.11
2022-08-24T04:27:45.294Z,86.11
2022-08-24T04:30:52.188Z,86.10
2022-08-24T04:34:07.953Z,86.16
2022-08-24T04:37:12.125Z,86.18
2022-08-24T04:40:15.351Z,86.25
2022-08-24T04:43:24.654Z,86.32
2022-08-24T04:46:30.549Z,86.34
2022-08-24T04:49:33.563Z,86.40
2022-08-24T04:52:37.088Z,86.43
2022-08-24T04:55:49.653Z,86.41
2022-08-24T04:58:55.345Z,86.42
2022-08-24T05:01:58.325Z,86.55
2022-08-24T05:05:01.369Z,86.58
2022-08-24T05:08:04.249Z,86.54
2022-08-24T05:11:08.372Z,86.55
2022-08-24T05:14:11.882Z,86.57
2022-08-24T05:17:15.393Z,86.67
2022-08-24T05:20:18.687Z,86.62
2022-08-24T05:23:22.751Z,86.62
2022-08-24T05:26:28.695Z,86.62
2022-08-24T05:29:34.716Z,86.55
2022-08-24T05:32:38.381Z,86.34
2022-08-24T05:35:43.787Z,86.33
2022-08-24T05:38:49.985Z,86.22
2022-08-24T05:41:52.932Z,86.09
2022-08-24T05:45:00.004Z,86.00
2022-08-24T05:48:03.776Z,86.02
2022-08-24T05:51:26.064Z,85.90
2022-08-24T05:54:34.326Z,85.85
2022-08-24T05:57:39.612Z,85.83
2022-08-24T06:00:49.759Z,85.93
2022-08-24T06:03:55.507Z,85.93
2022-08-24T06:06:59.407Z,85.92
2022-08-24T06:10:32.937Z,85.88
2022-08-24T06:13:27.078Z,85.92
2022-08-24T06:16:30.200Z,85.95
2022-08-24T06:19:37.097Z,85.86
2022-08-24T06:22:47.729Z,85.96
2022-08-24T06:26:14.695Z,85.83
2022-08-24T06:29:21.161Z,85.71
2022-08-24T06:32:29.261Z,85.69
2022-08-24T06:35:46.664Z,85.67
2022-08-24T06:38:53.535Z,85.57
2022-08-24T06:41:56.634Z,85.56
2022-08-24T06:45:06.491Z,85.38
2022-08-24T06:48:09.797Z,85.38
2022-08-24T06:51:17.041Z,85.29
2022-08-24T06:54:21.052Z,85.33
2022-08-24T06:57:24.338Z,85.39
2022-08-24T07:00:28.829Z,85.05
2022-08-24T07:03:32.122Z,85.16
2022-08-24T07:06:55.036Z,85.25
2022-08-24T07:10:00.867Z,85.20
2022-08-24T07:13:04.448Z,84.83
2022-08-24T07:16:07.846Z,84.95
2022-08-24T07:19:11.783Z,85.01
2022-08-24T07:22:15.607Z,84.97
2022-08-24T07:25:18.756Z,85.04
2022-08-24T07:28:27.759Z,85.01
2022-08-24T07:31:40.048Z,84.87
2022-08-24T07:34:47.252Z,84.65
2022-08-24T07:37:50.969Z,84.26
2022-08-24T07:41:20.336Z,84.04
2022-08-24T07:44:19.484Z,83.88
2022-08-24T07:47:41.821Z,83.77
2022-08-24T07:50:57.058Z,83.79
2022-08-24T07:54:02.675Z,83.45
2022-08-24T07:57:13.645Z,83.27
2022-08-24T08:00:19.967Z,83.06
2022-08-24T08:03:29.291Z,82.99
2022-08-24T08:06:33.309Z,82.92
2022-08-24T08:09:38.395Z,82.76
2022-08-24T08:12:42.097Z,82.74
2022-08-24T08:15:46.071Z,82.50
2022-08-24T08:19:00.778Z,82.48
2022-08-24T08:22:30.644Z,82.42
2022-08-24T08:26:07.690Z,82.36
2022-08-24T08:29:20.346Z,82.49
2022-08-24T08:32:23.854Z,82.47
2022-08-24T08:35:27.073Z,82.28
2022-08-24T08:38:30.508Z,82.09
2022-08-24T08:42:24.164Z,82.00
2022-08-24T08:45:46.496Z,82.06
2022-08-24T08:49:46.414Z,81.81
2022-08-24T08:52:59.640Z,81.64
2022-08-24T08:56:31.409Z,81.58
2022-08-24T08:59:37.076Z,81.88
2022-08-24T09:03:09.029Z,81.55
2022-08-24T09:07:02.394Z,81.25
2022-08-24T09:10:19.138Z,81.18
2022-08-24T09:13:50.648Z,81.58
2022-08-24T09:17:29.601Z,81.47
2022-08-24T09:20:50.448Z,81.38
2022-08-24T09:24:15.062Z,81.01
2022-08-24T09:27:43.459Z,80.52
2022-08-24T09:31:12.716Z,80.36
2022-08-24T09:34:34.824Z,80.07
2022-08-24T09:38:24.035Z,80.07
2022-08-24T09:42:15.101Z,79.83
2022-08-24T09:45:44.588Z,79.62
2022-08-24T09:49:02.807Z,79.88
2022-08-24T09:52:48.996Z,80.25
2022-08-24T09:56:18.930Z,79.84
2022-08-24T09:59:36.402Z,80.21
2022-08-24T10:03:25.295Z,79.94
2022-08-24T10:07:12.189Z,79.74
2022-08-24T10:10:59.802Z,79.91
2022-08-24T10:14:09.066Z,79.62
2022-08-24T10:17:42.964Z,79.29
2022-08-24T10:21:20.500Z,78.52
2022-08-24T10:25:01.110Z,78.83
2022-08-24T10:28:47.443Z,77.61
2022-08-24T10:32:28.421Z,77.43
2022-08-24T10:36:03.682Z,77.03
2022-08-24T10:39:47.708Z,76.93
2022-08-24T10:43:28.120Z,77.59
2022-08-24T10:46:54.339Z,77.97
2022-08-24T10:50:31.306Z,77.24
2022-08-24T10:53:36.090Z,76.94
2022-08-24T10:56:55.381Z,76.18
2022-08-24T11:00:22.724Z,76.49
2022-08-24T11:03:28.493Z,76.91
2022-08-24T11:06:35.878Z,76.30
2022-08-24T11:09:57.054Z,76.15
2022-08-24T11:13:18.652Z,76.94
2022-08-24T11:16:31.077Z,76.85
2022-08-24T11:19:35.376Z,75.85
2022-08-24T11:23:05.346Z,75.92
2022-08-24T11:26:21.546Z,75.61
2022-08-24T11:29:33.350Z,75.99
2022-08-24T11:32:46.562Z,75.97
2022-08-24T11:35:49.581Z,75.66
2022-08-24T11:39:10.778Z,76.13
2022-08-24T11:42:32.858Z,76.67
2022-08-24T11:45:54.728Z,76.37
2022-08-24T11:49:02.920Z,75.89
2022-08-24T11:52:53.133Z,76.44
2022-08-24T11:56:01.962Z,76.17
2022-08-24T11:59:26.474Z,76.24
2022-08-24T12:02:42.052Z,75.36
2022-08-24T12:05:53.762Z,74.63
2022-08-24T12:09:24.908Z,74.60
2022-08-24T12:12:46.788Z,74.05
2022-08-24T12:16:23.081Z,74.20
2022-08-24T12:19:32.250Z,75.09
2022-08-24T12:22:36.300Z,73.88
2022-08-24T12:25:58.427Z,74.23
2022-08-24T12:29:32.307Z,73.00
2022-08-24T12:32:58.894Z,72.33
2022-08-24T12:36:06.873Z,72.64
2022-08-24T12:39:27.226Z,71.52
2022-08-24T12:42:49.879Z,71.58
2022-08-24T12:45:56.722Z,71.53
2022-08-24T12:49:19.626Z,71.71
2022-08-24T12:52:46.758Z,71.70
2022-08-24T12:56:01.928Z,71.82
2022-08-24T12:59:30.232Z,71.90
2022-08-24T13:02:47.726Z,72.66
2022-08-24T13:05:57.714Z,72.31
2022-08-24T13:09:26.877Z,71.17
2022-08-24T13:12:41.971Z,70.71
2022-08-24T13:15:45.587Z,70.55
2022-08-24T13:19:09.917Z,70.74
2022-08-24T13:22:12.984Z,71.34
2022-08-24T13:25:37.823Z,71.34
2022-08-24T13:28:45.811Z,71.55
2022-08-24T13:31:54.146Z,71.95
2022-08-24T13:34:58.611Z,71.70
2022-08-24T13:38:35.857Z,72.35
2022-08-24T13:42:03.801Z,72.50
2022-08-24T13:45:24.346Z,73.44
2022-08-24T13:48:33.212Z,72.64
2022-08-24T13:52:10.308Z,73.18
2022-08-24T13:55:50.620Z,72.68
2022-08-24T13:58:59.906Z,72.26
2022-08-24T14:02:16.035Z,72.52
2022-08-24T14:05:40.206Z,72.48
2022-08-24T14:08:44.324Z,73.02
2022-08-24T14:12:14.886Z,73.60
2022-08-24T14:15:24.135Z,73.91
2022-08-24T14:18:38.533Z,73.55
2022-08-24T14:22:00.053Z,73.50
2022-08-24T14:25:24.854Z,73.25
2022-08-24T14:28:37.375Z,73.16
2022-08-24T14:31:40.438Z,73.71
2022-08-24T14:35:25.353Z,73.45
2022-08-24T14:38:45.703Z,73.28
2022-08-24T14:42:14.991Z,72.77
2022-08-24T14:45:50.891Z,72.60
2022-08-24T14:49:15.725Z,71.94
2022-08-24T14:52:42.569Z,72.12
2022-08-24T14:56:12.908Z,72.84
2022-08-24T14:59:37.990Z,73.36
2022-08-24T15:03:01.374Z,74.05
2022-08-24T15:06:26.841Z,74.38
2022-08-24T15:09:35.611Z,74.42
2022-08-24T15:12:51.160Z,75.06
2022-08-24T15:16:01.862Z,75.72
2022-08-24T15:19:12.004Z,75.91
2022-08-24T15:22:39.454Z,74.99
2022-08-24T15:25:50.348Z,75.65
2022-08-24T15:28:56.746Z,75.51
2022-08-24T15:32:12.311Z,75.56
2022-08-24T15:35:24.361Z,75.55
2022-08-24T15:38:30.584Z,75.72
2022-08-24T15:41:39.113Z,75.56
2022-08-24T15:44:47.054Z,75.41
2022-08-24T15:47:53.089Z,75.34
2022-08-24T15:50:56.624Z,75.25
2022-08-24T15:54:15.487Z,75.32
2022-08-24T15:57:18.339Z,75.41
2022-08-24T16:00:44.548Z,75.84
2022-08-24T16:03:54.943Z,76.81
2022-08-24T16:06:57.834Z,76.83
2022-08-24T16:10:05.365Z,76.93
2022-08-24T16:13:17.398Z,77.04
2022-08-24T16:16:32.032Z,76.64
2022-08-24T16:19:37.219Z,76.67
2022-08-24T16:22:52.733Z,75.82
2022-08-24T16:26:38.696Z,75.83
2022-08-24T16:29:55.879Z,75.88
2022-08-24T16:33:01.268Z,75.76
2022-08-24T16:36:10.953Z,76.51
2022-08-24T16:39:13.907Z,76.85
2022-08-24T16:42:28.573Z,77.37
2022-08-24T16:45:35.413Z,77.22
2022-08-24T16:48:40.222Z,77.52
2022-08-24T16:51:45.607Z,77.57
2022-08-24T16:54:49.178Z,77.61
2022-08-24T16:57:52.071Z,77.51
2022-08-24T17:00:54.992Z,77.77
2022-08-24T17:03:58.750Z,77.99
2022-08-24T17:07:03.671Z,77.85
2022-08-24T17:10:09.206Z,78.11
2022-08-24T17:13:16.623Z,78.26
2022-08-24T17:16:30.827Z,78.33
2022-08-24T17:19:34.297Z,78.43
2022-08-24T17:22:38.506Z,78.78
2022-08-24T17:25:42.005Z,79.04
2022-08-24T17:28:47.407Z,79.17
2022-08-24T17:31:50.835Z,79.24
2022-08-24T17:34:53.753Z,79.44
2022-08-24T17:37:57.594Z,79.49
2022-08-24T17:41:01.127Z,79.66
2022-08-24T17:44:05.874Z,79.75
2022-08-24T17:47:09.103Z,79.69
2022-08-24T17:50:13.886Z,79.78
2022-08-24T17:53:16.782Z,79.95
2022-08-24T17:56:20.295Z,80.05
2022-08-24T17:59:29.858Z,80.05
2022-08-24T18:02:32.880Z,79.71
2022-08-24T18:05:36.194Z,79.07
2022-08-24T18:08:39.158Z,78.26
2022-08-24T18:11:42.018Z,77.58
2022-08-24T18:14:45.151Z,76.55
2022-08-24T18:17:50.546Z,75.74
2022-08-24T18:20:53.850Z,75.10
2022-08-24T18:23:58.198Z,74.58
2022-08-24T18:27:13.698Z,74.01
2022-08-24T18:30:30.546Z,73.65
2022-08-24T18:33:34.531Z,72.93
2022-08-24T18:36:38.516Z,72.86
2022-08-24T18:39:41.402Z,72.69
2022-08-24T18:42:44.628Z,72.58
2022-08-24T18:45:48.540Z,72.40
2022-08-24T18:48:51.990Z,72.40
2022-08-24T18:51:55.684Z,72.31
2022-08-24T18:54:58.967Z,72.70
2022-08-24T18:58:02.204Z,72.23
2022-08-24T19:01:06.489Z,72.51
2022-08-24T19:04:13.988Z,72.92
2022-08-24T19:07:17.155Z,73.04
2022-08-24T19:10:23.883Z,72.73
2022-08-24T19:13:28.039Z,72.75
2022-08-24T19:16:31.614Z,72.74
2022-08-24T19:19:36.069Z,73.16
2022-08-24T19:22:46.213Z,73.67
2022-08-24T19:25:51.322Z,73.65
2022-08-24T19:28:58.330Z,73.69
2022-08-24T19:32:02.111Z,73.77
2022-08-24T19:35:11.640Z,74.03
2022-08-24T19:38:14.541Z,74.11
2022-08-24T19:41:19.730Z,73.86
2022-08-24T19:44:46.157Z,73.92
2022-08-24T19:47:55.493Z,73.75
2022-08-24T19:51:03.043Z,73.74
2022-08-24T19:54:07.961Z,73.77
2022-08-24T19:57:50.064Z,73.90
2022-08-24T20:01:18.516Z,74.17
2022-08-24T20:04:21.500Z,73.89
2022-08-24T20:07:24.789Z,73.81
2022-08-24T20:10:28.368Z,73.91
2022-08-24T20:13:31.702Z,73.99
2022-08-24T20:16:38.298Z,73.80
2022-08-24T20:19:41.319Z,73.82
2022-08-24T20:22:45.217Z,73.82
2022-08-24T20:26:02.393Z,73.91
2022-08-24T20:29:05.585Z,74.16
2022-08-24T20:32:08.492Z,74.15
2022-08-24T20:35:12.516Z,74.31
2022-08-24T20:38:18.341Z,74.49
2022-08-24T20:41:21.720Z,74.70
2022-08-24T20:44:24.676Z,74.81
2022-08-24T20:47:28.237Z,74.89
2022-08-24T20:50:34.596Z,74.71
2022-08-24T20:53:37.732Z,74.83
2022-08-24T20:56:42.904Z,74.94
2022-08-24T20:59:48.759Z,74.95
2022-08-24T21:02:52.470Z,75.19
2022-08-24T21:05:55.679Z,75.08
2022-08-24T21:09:04.551Z,75.08
2022-08-24T21:12:09.741Z,75.21
2022-08-24T21:15:14.311Z,75.29
2022-08-24T21:18:17.188Z,75.38
2022-08-24T21:21:20.412Z,75.43
2022-08-24T21:24:25.841Z,75.63
2022-08-24T21:27:28.768Z,75.73
2022-08-24T21:30:31.933Z,75.94
2022-08-24T21:33:58.755Z,76.05
2022-08-24T21:37:03.376Z,76.18
2022-08-24T21:40:07.749Z,76.24
2022-08-24T21:43:17.709Z,76.24
2022-08-24T21:46:29.764Z,76.12
2022-08-24T21:49:34.927Z,76.16
2022-08-24T21:52:38.221Z,76.23
2022-08-24T21:55:43.001Z,76.34
2022-08-24T21:58:47.978Z,76.42
2022-08-24T22:01:52.993Z,76.60
2022-08-24T22:05:00.257Z,76.66
2022-08-24T22:08:08.374Z,76.68
2022-08-24T22:11:14.186Z,76.72
2022-08-24T22:14:18.000Z,76.80
2022-08-24T22:17:20.984Z,76.83
2022-08-24T22:20:23.968Z,76.77
2022-08-24T22:23:27.060Z,76.75
2022-08-24T22:26:30.663Z,76.74
2022-08-24T22:29:34.458Z,76.70
2022-08-24T22:32:37.370Z,76.78
2022-08-24T22:35:45.069Z,76.84
2022-08-24T22:38:48.714Z,76.95
2022-08-24T22:41:51.596Z,77.11
2022-08-24T22:44:54.907Z,77.20
2022-08-24T22:48:00.184Z,77.31
2022-08-24T22:51:03.472Z,77.43
2022-08-24T22:54:07.108Z,77.58
2022-08-24T22:57:10.414Z,77.63
2022-08-24T23:00:16.924Z,77.71
2022-08-24T23:03:19.991Z,77.85
2022-08-24T23:06:23.245Z,77.95
2022-08-24T23:09:26.133Z,78.10
2022-08-24T23:12:30.419Z,78.23
2022-08-24T23:15:33.346Z,78.25
2022-08-24T23:18:55.787Z,78.26
2022-08-24T23:21:58.623Z,78.43
2022-08-24T23:25:02.410Z,78.64
2022-08-24T23:28:06.110Z,78.62
2022-08-24T23:31:11.884Z,78.74
2022-08-24T23:34:15.949Z,78.82
2022-08-24T23:37:18.924Z,78.95
2022-08-24T23:40:22.115Z,79.02
2022-08-24T23:43:25.104Z,79.02
2022-08-24T23:46:28.134Z,79.01
2022-08-24T23:49:31.636Z,79.09
2022-08-24T23:52:37.916Z,79.06
2022-08-24T23:55:41.610Z,79.04
2022-08-24T23:58:45.806Z,78.96
